Time;durP1;ratioP1;P1;durP2;ratioP2;P2;SDS_P1;SDS_P2;PMS_P1;PMS_P2;Temp;Humidity;BMP_temperature;BMP_pressure;BME280_temperature;BME280_humidity;BME280_pressure;Samples;Min_cycle;Max_cycle;Signal;HPM_P1;HPM_P2
2022/02/24 00:02:39;;;;;;;1.10;1.10;;;-1.60;94.40;-2.10;97648.00;;;;5120402;27;20766;-83
2022/02/24 00:05:28;;;;;;;1.60;1.30;;;-1.80;95.00;-1.50;97655.00;;;;5117860;27;20451;-82
2022/02/24 00:08:17;;;;;;;1.10;1.10;;;-1.80;95.20;-1.50;97652.00;;;;5127102;27;20424;-83
2022/02/24 00:11:05;;;;;;;4.03;0.90;;;-1.60;95.30;-1.20;97664.00;;;;5131729;27;20860;-83
2022/02/24 00:13:56;;;;;;;1.73;1.07;;;-1.70;95.40;-0.80;97667.00;;;;5114342;28;20912;-82
2022/02/24 00:16:47;;;;;;;1.83;1.40;;;-1.30;95.30;-0.60;97677.00;;;;5113373;27;20455;-83
2022/02/24 00:19:39;;;;;;;0.90;0.90;;;-1.40;95.40;-0.70;97662.00;;;;5130164;27;20437;-82
2022/02/24 00:22:28;;;;;;;1.10;1.00;;;-1.40;94.40;-0.50;97668.00;;;;5118668;27;20484;-83
2022/02/24 00:25:17;;;;;;;1.60;1.13;;;-1.20;93.80;-0.50;97674.00;;;;5103346;27;20468;-83
2022/02/24 00:28:06;;;;;;;1.50;1.07;;;-1.10;94.00;-0.20;97679.00;;;;5123935;27;20432;-83
2022/02/24 00:30:56;;;;;;;2.60;1.40;;;-1.00;94.00;-0.30;97677.00;;;;5114716;28;20444;-83
2022/02/24 00:33:45;;;;;;;1.27;0.97;;;-0.90;93.90;-0.90;97669.00;;;;5129771;28;20418;-83
2022/02/24 00:36:34;;;;;;;1.23;1.20;;;-0.80;94.30;-1.50;97663.00;;;;5116269;28;20459;-82
2022/02/24 00:39:24;;;;;;;2.07;1.93;;;-1.20;94.30;-1.80;97664.00;;;;5116024;27;20797;-83
2022/02/24 00:42:12;;;;;;;0.70;0.70;;;-1.40;94.40;-1.90;97670.00;;;;5132048;27;20474;-83
2022/02/24 00:45:01;;;;;;;1.87;1.63;;;-1.60;94.50;-1.80;97671.00;;;;5132790;27;20447;-83
2022/02/24 00:47:52;;;;;;;3.53;1.10;;;-1.40;94.80;-1.50;97657.00;;;;5132366;28;20786;-82
2022/02/24 00:50:40;;;;;;;1.23;1.10;;;-1.20;95.20;-2.10;97630.00;;;;5130684;28;20423;-83
2022/02/24 00:53:29;;;;;;;4.13;1.57;;;-1.80;95.70;-1.90;97640.00;;;;5105846;28;20815;-83
2022/02/24 00:56:18;;;;;;;2.53;1.57;;;-1.70;96.10;-2.10;97656.00;;;;5101545;28;20808;-82
2022/02/24 00:59:07;;;;;;;10.87;3.17;;;-1.80;96.40;-2.20;97653.00;;;;5100040;28;20440;-82
2022/02/24 01:01:56;;;;;;;7.63;3.13;;;-1.80;96.40;-1.50;97662.00;;;;5102229;28;20458;-83
2022/02/24 01:04:46;;;;;;;6.03;1.90;;;-1.80;96.60;-2.10;97651.00;;;;5123941;28;20425;-83
2022/02/24 01:07:35;;;;;;;1.03;1.03;;;-1.90;96.90;-2.10;97656.00;;;;5127078;28;20426;-84
2022/02/24 01:10:24;;;;;;;1.17;1.07;;;-1.60;97.20;-2.10;97660.00;;;;5132935;27;20427;-83
2022/02/24 01:13:12;;;;;;;1.73;1.30;;;-2.00;97.10;-2.10;97653.00;;;;5090726;28;20410;-84
2022/02/24 01:16:01;;;;;;;4.87;1.50;;;-1.20;97.20;-1.80;97653.00;;;;5096283;28;20450;-82
2022/02/24 01:18:50;;;;;;;4.13;1.33;;;-2.00;96.80;-1.40;97641.00;;;;5129825;28;20819;-83
2022/02/24 01:21:40;;;;;;;3.30;1.20;;;-0.60;97.30;-1.20;97645.00;;;;5096943;28;20465;-83
2022/02/24 01:24:29;;;;;;;0.77;0.70;;;-1.80;96.60;-1.50;97634.00;;;;5095394;28;20812;-83
2022/02/24 01:27:18;;;;;;;0.87;0.60;;;-1.70;96.10;-1.40;97624.00;;;;5096915;28;20430;-83
2022/02/24 01:30:08;;;;;;;0.80;0.80;;;-1.70;95.40;-1.10;97638.00;;;;5119482;28;20506;-82
2022/02/24 01:32:57;;;;;;;1.33;0.90;;;-1.60;95.20;-1.10;97644.00;;;;5121300;28;20431;-83
2022/02/24 01:35:46;;;;;;;1.20;0.90;;;-1.20;95.10;-0.90;97629.00;;;;5122774;28;20429;-83
2022/02/24 01:38:36;;;;;;;0.77;0.77;;;-1.20;95.10;-0.90;97612.00;;;;5120811;28;20409;-83
2022/02/24 01:41:25;;;;;;;1.47;1.20;;;-1.50;94.80;-0.60;97623.00;;;;5120240;28;20457;-84
2022/02/24 01:44:14;;;;;;;0.57;0.57;;;-1.40;95.20;-1.00;97613.00;;;;5122822;28;20428;-84
2022/02/24 01:47:04;;;;;;;2.37;1.20;;;-1.30;94.90;-1.50;97600.00;;;;5121819;28;20420;-84
2022/02/24 01:49:53;;;;;;;0.97;0.97;;;-1.40;94.90;-1.80;97600.00;;;;5123233;28;20424;-84
2022/02/24 01:52:44;;;;;;;1.53;1.27;;;-1.60;95.40;-1.90;97599.00;;;;5123260;28;20428;-83
2022/02/24 01:55:34;;;;;;;1.03;0.80;;;-1.50;95.60;-2.10;97600.00;;;;5121963;28;20848;-83
2022/02/24 01:58:23;;;;;;;4.07;1.33;;;-1.90;95.80;-1.60;97593.00;;;;5137882;27;20968;-83
2022/02/24 02:01:12;;;;;;;1.17;1.00;;;-1.90;96.00;-1.30;97600.00;;;;5143741;27;20435;-83
2022/02/24 02:04:01;;;;;;;1.23;1.13;;;-1.30;96.40;-1.70;97598.00;;;;5142549;27;20442;-83
2022/02/24 02:06:51;;;;;;;3.03;1.30;;;-1.90;96.30;-2.20;97593.00;;;;5141811;27;20456;-84
2022/02/24 02:09:41;;;;;;;1.10;1.00;;;-2.00;96.80;-2.50;97579.00;;;;5142187;27;20438;-83
2022/02/24 02:12:31;;;;;;;0.83;0.83;;;-2.10;97.10;-2.40;97580.00;;;;5121229;27;20437;-84
2022/02/24 02:15:20;;;;;;;1.07;1.03;;;-2.20;97.70;-2.40;97570.00;;;;5120854;28;20449;-82
2022/02/24 02:18:09;;;;;;;4.30;1.77;;;-2.30;98.00;-2.10;97579.00;;;;5131126;27;20439;-83
2022/02/24 02:20:59;;;;;;;1.77;1.27;;;-2.30;98.30;-2.00;97563.00;;;;5141002;27;20431;-83
2022/02/24 02:23:48;;;;;;;2.63;1.27;;;-1.30;99.00;-2.60;97551.00;;;;5141540;27;20426;-84
2022/02/24 02:26:37;;;;;;;2.13;1.33;;;-2.30;99.00;-2.70;97550.00;;;;5137028;27;20997;-84
2022/02/24 02:29:26;;;;;;;3.17;1.63;;;-2.40;99.70;-2.40;97552.00;;;;5140760;27;20443;-84
2022/02/24 02:32:17;;;;;;;4.47;1.10;;;-2.50;99.90;-2.60;97550.00;;;;5135564;27;20420;-83
2022/02/24 02:35:07;;;;;;;0.77;0.77;;;-2.40;99.90;-2.80;97544.00;;;;5135456;27;20446;-84
2022/02/24 02:37:58;;;;;;;2.30;1.00;;;-2.50;99.90;-2.50;97536.00;;;;5134598;27;20447;-83
2022/02/24 02:40:47;;;;;;;2.23;1.00;;;-2.60;99.90;-2.30;97550.00;;;;5135483;27;20420;-82
2022/02/24 02:43:35;;;;;;;3.67;1.50;;;-2.60;99.90;-2.40;97533.00;;;;5132661;27;20463;-82
2022/02/24 02:46:25;;;;;;;0.40;0.40;;;-2.50;99.90;-2.70;97538.00;;;;5132675;27;20458;-83
2022/02/24 02:49:13;;;;;;;0.80;0.80;;;-2.50;99.90;-2.90;97522.00;;;;5131492;27;20497;-83
2022/02/24 02:52:05;;;;;;;1.10;1.03;;;-2.50;99.90;-2.70;97513.00;;;;5131143;27;20827;-83
2022/02/24 02:55:01;;;;;;;1.43;1.20;;;-2.60;99.90;-2.20;97519.00;;;;5132353;27;20448;-83
2022/02/24 02:57:50;;;;;;;1.40;1.30;;;-2.60;99.90;-2.10;97514.00;;;;5124721;27;20444;-83
2022/02/24 03:00:39;;;;;;;1.57;1.47;;;-2.50;99.90;-2.20;97511.00;;;;5130859;27;20412;-83
2022/02/24 03:03:28;;;;;;;4.93;2.27;;;-2.50;99.90;-2.20;97499.00;;;;5129729;27;20476;-83
2022/02/24 03:06:17;;;;;;;2.60;1.53;;;-2.50;99.90;-2.30;97496.00;;;;5131026;27;20468;-83
2022/02/24 03:09:06;;;;;;;1.33;1.23;;;-2.50;99.90;-2.20;97491.00;;;;5129280;27;20438;-83
2022/02/24 03:11:56;;;;;;;2.70;1.77;;;-2.50;99.90;-2.30;97493.00;;;;5116684;27;20432;-83
2022/02/24 03:14:46;;;;;;;2.77;1.70;;;-2.40;99.90;-2.60;97479.00;;;;5110123;28;20447;-83
2022/02/24 03:17:35;;;;;;;2.13;1.40;;;-2.40;99.90;-3.10;97476.00;;;;5117555;27;20800;-83
2022/02/24 03:20:23;;;;;;;2.23;1.73;;;-2.60;99.90;-2.80;97475.00;;;;5131655;27;20431;-83
2022/02/24 03:23:13;;;;;;;1.50;1.03;;;-2.70;99.90;-3.20;97472.00;;;;5129776;27;20463;-84
2022/02/24 03:26:02;;;;;;;1.70;1.60;;;-2.80;99.90;-3.00;97474.00;;;;5131092;27;20444;-84
2022/02/24 03:28:52;;;;;;;3.17;1.93;;;-2.30;99.90;-2.80;97465.00;;;;5130307;27;20447;-83
2022/02/24 03:31:41;;;;;;;6.10;1.60;;;-2.90;99.90;-2.30;97470.00;;;;5129671;27;20418;-83
2022/02/24 03:34:32;;;;;;;3.53;1.77;;;-2.90;99.90;-2.80;97471.00;;;;5128392;27;20924;-83
2022/02/24 03:37:20;;;;;;;2.83;1.37;;;-2.80;99.90;-2.90;97471.00;;;;5129092;27;20801;-83
2022/02/24 03:40:11;;;;;;;1.17;1.17;;;-2.90;99.90;-3.30;97468.00;;;;5132114;27;20427;-84
2022/02/24 03:43:00;;;;;;;1.73;1.13;;;-3.00;99.90;-3.30;97466.00;;;;5137370;27;20467;-83
2022/02/24 03:45:50;;;;;;;1.80;1.20;;;-2.90;99.90;-3.10;97465.00;;;;5145196;27;20444;-83
2022/02/24 03:48:40;;;;;;;3.80;1.67;;;-2.70;99.90;-3.10;97469.00;;;;5128678;27;20427;-83
2022/02/24 03:51:29;;;;;;;6.70;2.03;;;-3.00;99.90;-2.90;97465.00;;;;5129283;27;20747;-83
2022/02/24 03:54:17;;;;;;;3.47;1.70;;;-2.90;99.90;-2.80;97447.00;;;;5127636;27;20442;-83
2022/02/24 03:57:07;;;;;;;3.13;2.17;;;-2.90;99.90;-2.30;97464.00;;;;5122437;27;20440;-83
2022/02/24 03:59:55;;;;;;;5.73;2.17;;;-2.80;99.90;-2.00;97465.00;;;;5124328;27;20423;-83
2022/02/24 04:02:45;;;;;;;2.50;2.00;;;-2.70;99.90;-2.20;97458.00;;;;5087527;28;20457;-83
2022/02/24 04:05:35;;;;;;;1.87;1.37;;;-2.60;99.90;-2.80;97443.00;;;;5088573;28;20666;-83
2022/02/24 04:08:25;;;;;;;1.40;0.87;;;-2.70;99.90;-3.30;97431.00;;;;5105542;27;20419;-82
2022/02/24 04:11:13;;;;;;;2.47;1.50;;;-2.80;99.90;-2.90;97445.00;;;;5120348;27;20417;-83
2022/02/24 04:14:02;;;;;;;1.30;1.20;;;-2.90;99.90;-2.80;97436.00;;;;5108245;28;20693;-83
2022/02/24 04:16:51;;;;;;;2.43;2.23;;;-2.90;99.90;-2.80;97430.00;;;;5109402;27;20808;-82
2022/02/24 04:19:42;;;;;;;3.57;1.93;;;-2.90;99.90;-3.30;97416.00;;;;5129848;27;20434;-82
2022/02/24 04:22:31;;;;;;;2.70;1.90;;;-3.00;99.90;-3.00;97410.00;;;;5128900;27;20463;-82
2022/02/24 04:25:20;;;;;;;2.33;2.00;;;-3.00;99.90;-3.20;97409.00;;;;5128269;27;20443;-82
2022/02/24 04:28:09;;;;;;;4.17;1.67;;;-3.00;99.90;-3.20;97400.00;;;;5128662;27;20505;-84
2022/02/24 04:30:58;;;;;;;1.63;1.33;;;-3.10;99.90;-2.60;97406.00;;;;5128594;27;20503;-83
2022/02/24 04:33:47;;;;;;;2.93;2.40;;;-3.10;99.90;-2.70;97407.00;;;;5127876;27;20924;-82
2022/02/24 04:36:37;;;;;;;1.53;1.43;;;-3.00;99.90;-2.80;97390.00;;;;5128564;27;20799;-83
2022/02/24 04:39:26;;;;;;;1.23;1.20;;;-3.00;99.90;-3.30;97392.00;;;;5129400;27;20484;-82
2022/02/24 04:42:15;;;;;;;0.90;0.90;;;-3.10;99.90;-3.60;97385.00;;;;5127668;27;20420;-84
2022/02/24 04:45:04;;;;;;;1.57;1.40;;;-3.20;99.90;-3.70;97376.00;;;;5127712;27;20436;-82
2022/02/24 04:47:53;;;;;;;2.73;1.50;;;-3.30;99.90;-3.30;97371.00;;;;5128579;27;20428;-83
2022/02/24 04:50:42;;;;;;;3.10;2.00;;;-3.30;99.90;-3.00;97367.00;;;;5129104;28;20473;-82
2022/02/24 04:53:32;;;;;;;4.33;2.63;;;-3.30;99.90;-3.20;97369.00;;;;5128433;28;20452;-82
2022/02/24 04:56:21;;;;;;;2.37;1.57;;;-3.30;99.90;-3.10;97361.00;;;;5129795;28;20447;-83
2022/02/24 04:59:10;;;;;;;0.80;0.80;;;-3.20;99.90;-3.60;97363.00;;;;5097802;28;20461;-84
2022/02/24 05:01:59;;;;;;;1.70;1.60;;;-3.20;99.90;-3.50;97359.00;;;;5093806;28;20429;-83
2022/02/24 05:04:48;;;;;;;1.53;1.43;;;-3.30;99.90;-3.10;97355.00;;;;5108577;28;20472;-82
2022/02/24 05:07:37;;;;;;;1.00;1.00;;;-3.30;99.90;-3.50;97358.00;;;;5116653;27;20421;-83
2022/02/24 05:10:28;;;;;;;2.33;1.50;;;-3.20;99.90;-3.40;97360.00;;;;5134052;27;20458;-83
2022/02/24 05:13:17;;;;;;;2.83;2.33;;;-3.30;99.90;-2.90;97351.00;;;;5111252;28;20409;-83
2022/02/24 05:16:06;;;;;;;4.27;2.00;;;-3.20;99.90;-2.40;97373.00;;;;5113665;28;20452;-82
2022/02/24 05:18:55;;;;;;;3.00;2.23;;;-3.00;99.90;-3.30;97351.00;;;;5131049;27;20823;-83
2022/02/24 05:21:44;;;;;;;0.60;0.60;;;-2.60;99.90;-4.00;97352.00;;;;5133853;27;20459;-84
2022/02/24 05:24:33;;;;;;;0.90;0.77;;;-3.20;99.90;-3.80;97343.00;;;;5133225;27;20460;-84
2022/02/24 05:27:23;;;;;;;1.17;1.17;;;-3.40;99.90;-3.60;97352.00;;;;5132621;27;20442;-82
2022/02/24 05:30:15;;;;;;;1.90;1.20;;;-3.40;99.90;-3.30;97349.00;;;;5114673;27;20496;-83
2022/02/24 05:33:04;;;;;;;3.43;1.10;;;-3.40;99.90;-4.10;97341.00;;;;5099646;28;20432;-82
2022/02/24 05:35:53;;;;;;;1.17;1.10;;;-3.50;99.90;-4.00;97339.00;;;;5092295;28;20515;-84
2022/02/24 05:38:42;;;;;;;3.30;3.10;;;-3.50;99.90;-3.80;97346.00;;;;5092308;28;20425;-83
2022/02/24 05:41:30;;;;;;;4.73;4.33;;;-3.60;99.90;-3.50;97345.00;;;;5092571;28;20540;-82
2022/02/24 05:44:23;;;;;;;3.73;2.70;;;-3.50;99.90;-3.40;97337.00;;;;5091749;28;20460;-84
2022/02/24 05:47:12;;;;;;;4.10;2.57;;;-3.50;99.90;-3.40;97339.00;;;;5093536;28;20811;-84
2022/02/24 05:50:07;;;;;;;1.27;1.23;;;-3.50;99.90;-3.60;97333.00;;;;5093422;28;20421;-84
2022/02/24 05:53:02;;;;;;;5.17;1.43;;;-3.40;99.90;-4.00;97327.00;;;;5091504;28;20421;-84
2022/02/24 05:55:51;;;;;;;3.63;1.70;;;-3.40;99.90;-3.40;97331.00;;;;5092297;28;20445;-84
2022/02/24 05:58:40;;;;;;;1.00;1.00;;;-3.40;99.90;-3.20;97333.00;;;;5100657;28;20898;-83
2022/02/24 06:01:30;;;;;;;2.47;1.50;;;-3.40;99.90;-2.90;97341.00;;;;5089443;28;20827;-83
2022/02/24 06:04:19;;;;;;;1.50;1.40;;;-3.30;99.90;-2.90;97321.00;;;;5107355;28;20467;-83
2022/02/24 06:07:10;;;;;;;5.80;1.50;;;-3.20;99.90;-3.30;97326.00;;;;5127058;28;20443;-83
2022/02/24 06:09:58;;;;;;;1.63;1.53;;;-3.10;99.90;-2.90;97336.00;;;;5092777;28;20436;-84
2022/02/24 06:12:47;;;;;;;0.90;0.90;;;-3.10;99.90;-2.90;97327.00;;;;5093507;28;20445;-84
2022/02/24 06:15:36;;;;;;;1.37;1.27;;;-3.00;99.90;-2.60;97327.00;;;;5110223;27;20527;-84
2022/02/24 06:18:26;;;;;;;2.63;1.30;;;-2.90;99.90;-2.60;97328.00;;;;5112949;28;20420;-84
2022/02/24 06:21:16;;;;;;;0.80;0.80;;;-2.90;99.90;-3.30;97315.00;;;;5112139;28;20416;-84
2022/02/24 06:24:06;;;;;;;1.10;1.00;;;-3.30;99.90;-3.40;97302.00;;;;5111581;28;20879;-86
2022/02/24 06:26:55;;;;;;;3.47;2.33;;;-3.00;99.90;-3.40;97306.00;;;;5111820;28;20424;-84
2022/02/24 06:29:44;;;;;;;2.20;2.00;;;-3.10;99.90;-3.20;97305.00;;;;5086060;28;20418;-84
2022/02/24 06:32:33;;;;;;;1.50;1.40;;;-3.10;99.90;-3.50;97312.00;;;;5100905;28;20422;-84
2022/02/24 06:35:23;;;;;;;1.43;1.33;;;-3.10;99.90;-3.30;97305.00;;;;5104682;28;20434;-83
2022/02/24 06:38:12;;;;;;;1.53;1.00;;;-3.10;99.90;-2.80;97298.00;;;;5118891;28;20952;-84
2022/02/24 06:41:01;;;;;;;1.87;1.03;;;-3.10;99.90;-2.70;97300.00;;;;5112521;28;20448;-82
2022/02/24 06:43:50;;;;;;;0.60;0.60;;;-2.90;99.90;-3.10;97288.00;;;;5106869;28;20480;-84
2022/02/24 06:46:39;;;;;;;1.43;1.33;;;-2.80;99.90;-2.60;97294.00;;;;5100983;28;20457;-84
2022/02/24 06:49:28;;;;;;;1.87;1.33;;;-2.80;99.90;-3.00;97286.00;;;;5129191;28;20467;-82
2022/02/24 06:52:18;;;;;;;2.17;1.77;;;-2.70;99.90;-3.00;97293.00;;;;5151210;27;20434;-82
2022/02/24 06:55:09;;;;;;;2.43;1.67;;;-2.70;99.90;-3.00;97288.00;;;;5139103;27;20443;-82
2022/02/24 06:57:58;;;;;;;2.07;1.90;;;-2.70;99.90;-2.90;97286.00;;;;5085883;27;1187342;-84
2022/02/24 07:00:46;;;;;;;2.40;1.60;;;-2.70;99.90;-2.60;97282.00;;;;5124137;27;20814;-83
2022/02/24 07:03:35;;;;;;;1.97;1.33;;;-2.60;99.90;-2.50;97280.00;;;;5106317;27;20452;-84
2022/02/24 07:06:25;;;;;;;3.53;2.60;;;-2.50;99.90;-2.30;97277.00;;;;5105383;27;20465;-83
2022/02/24 07:09:15;;;;;;;2.30;1.70;;;-2.40;99.90;-2.30;97278.00;;;;5131286;27;20421;-83
2022/02/24 07:12:05;;;;;;;1.60;1.50;;;-2.30;99.90;-2.10;97283.00;;;;5117613;28;20425;-84
2022/02/24 07:14:54;;;;;;;2.00;1.63;;;-2.30;99.90;-2.10;97277.00;;;;5119504;27;20460;-85
2022/02/24 07:17:44;;;;;;;2.47;2.33;;;-2.20;99.90;-1.90;97281.00;;;;5106224;28;20445;-84
2022/02/24 07:20:33;;;;;;;2.27;2.07;;;-2.20;99.90;-1.90;97278.00;;;;5112508;27;20507;-82
2022/02/24 07:23:24;;;;;;;2.80;1.87;;;-2.10;99.90;-1.50;97278.00;;;;5121100;27;20428;-80
2022/02/24 07:26:15;;;;;;;3.93;1.20;;;-2.00;99.90;-1.80;97266.00;;;;5136441;27;20451;-82
2022/02/24 07:29:03;;;;;;;2.47;1.70;;;-1.90;99.90;-1.90;97274.00;;;;5124461;27;20834;-83
2022/02/24 07:31:53;;;;;;;3.67;2.80;;;-1.90;99.90;-1.50;97269.00;;;;5107662;28;20437;-84
2022/02/24 07:34:41;;;;;;;4.27;2.13;;;-1.70;99.90;-1.40;97261.00;;;;5110252;28;20446;-82
2022/02/24 07:37:32;;;;;;;2.43;2.00;;;-1.70;99.90;-1.40;97264.00;;;;5108838;28;20867;-83
2022/02/24 07:40:21;;;;;;;2.50;2.30;;;-1.60;99.90;-0.90;97272.00;;;;5118284;28;21395;-84
2022/02/24 07:43:11;;;;;;;8.87;3.00;;;-1.50;99.90;-1.30;97259.00;;;;5119353;28;20412;-83
2022/02/24 07:46:00;;;;;;;13.67;3.70;;;-1.40;99.90;-0.40;97275.00;;;;5114247;28;20479;-83
2022/02/24 07:48:50;;;;;;;3.70;2.83;;;-1.20;99.90;-0.10;97278.00;;;;5111464;28;20808;-85
2022/02/24 07:51:39;;;;;;;5.40;3.07;;;-0.80;99.90;0.10;97269.00;;;;5105598;28;20425;-84
2022/02/24 07:54:27;;;;;;;5.30;2.90;;;-0.80;99.90;0.10;97256.00;;;;5117246;28;20969;-83
2022/02/24 07:57:16;;;;;;;10.63;3.07;;;-0.60;99.90;0.50;97260.00;;;;5115358;28;20452;-83
2022/02/24 08:00:13;;;;;;;4.87;3.50;;;-0.20;99.90;0.80;97265.00;;;;5131655;27;20420;-84
2022/02/24 08:03:02;;;;;;;6.23;3.53;;;-0.10;99.90;0.70;97257.00;;;;5097212;28;20480;-83
2022/02/24 08:05:51;;;;;;;5.83;3.13;;;0.30;99.90;0.50;97255.00;;;;5097756;28;20466;-82
2022/02/24 08:08:40;;;;;;;3.93;2.40;;;0.30;99.90;0.80;97260.00;;;;5119152;27;20427;-85
2022/02/24 08:11:29;;;;;;;7.90;3.70;;;0.40;99.90;0.90;97244.00;;;;5139016;27;20954;-82
2022/02/24 08:14:19;;;;;;;5.67;2.80;;;0.50;99.90;1.00;97243.00;;;;5109301;27;20888;-84
2022/02/24 08:17:09;;;;;;;5.73;3.23;;;0.60;99.90;1.30;97235.00;;;;5120337;27;20416;-85
2022/02/24 08:19:58;;;;;;;6.33;2.80;;;0.70;99.90;1.80;97241.00;;;;5108919;28;21106;-85
2022/02/24 08:22:49;;;;;;;4.27;2.63;;;1.00;99.90;1.90;97235.00;;;;5114192;28;20420;-83
2022/02/24 08:25:38;;;;;;;5.20;3.00;;;1.30;99.90;2.40;97241.00;;;;5114469;27;20472;-83
2022/02/24 08:28:27;;;;;;;6.87;3.20;;;1.50;99.90;2.40;97235.00;;;;5114881;27;20436;-82
2022/02/24 08:31:16;;;;;;;3.90;3.50;;;1.70;99.90;2.70;97231.00;;;;5105896;28;20420;-85
2022/02/24 08:34:07;;;;;;;9.77;2.87;;;1.90;99.90;3.30;97236.00;;;;5111890;27;20424;-83
2022/02/24 08:36:56;;;;;;;6.33;3.37;;;2.10;99.90;3.40;97228.00;;;;5094728;28;20429;-85
2022/02/24 08:39:47;;;;;;;7.57;3.30;;;2.40;99.90;3.50;97221.00;;;;5108593;28;20663;-85
2022/02/24 08:42:37;;;;;;;3.30;2.37;;;2.60;99.90;3.30;97223.00;;;;5109421;27;20932;-84
2022/02/24 08:45:26;;;;;;;4.77;2.80;;;2.90;99.90;4.00;97220.00;;;;5133939;27;21019;-85
2022/02/24 08:48:16;;;;;;;6.70;2.97;;;3.10;99.90;4.40;97216.00;;;;5134547;27;20801;-83
2022/02/24 08:51:06;;;;;;;5.23;2.80;;;3.20;99.90;4.90;97210.00;;;;5124680;28;20432;-84
2022/02/24 08:53:55;;;;;;;8.47;3.20;;;3.50;99.90;5.40;97203.00;;;;5106992;28;20425;-84
2022/02/24 08:56:44;;;;;;;5.10;2.53;;;3.80;99.90;5.50;97205.00;;;;5111012;28;20453;-84
2022/02/24 08:59:33;;;;;;;4.33;2.70;;;4.10;99.90;5.80;97200.00;;;;5096569;28;20776;-85
2022/02/24 09:02:24;;;;;;;5.70;2.93;;;4.40;99.90;5.80;97196.00;;;;5103205;28;20874;-84
2022/02/24 09:05:13;;;;;;;7.03;3.13;;;4.70;99.90;6.20;97202.00;;;;5101644;28;21003;-84
2022/02/24 09:08:29;;;;;;;5.93;2.63;;;4.80;98.70;6.50;97214.00;;;;5102722;28;20211;-83
2022/02/24 09:11:29;;;;;;;5.13;2.97;;;3.70;97.60;6.70;97193.00;;;;5105641;28;20587;-84
2022/02/24 09:14:24;;;;;;;10.17;3.13;;;5.70;97.30;6.80;97188.00;;;;5111341;28;20275;-83
2022/02/24 09:17:43;;;;;;;7.63;3.17;;;5.50;95.00;7.00;97187.00;;;;5110235;28;20667;-84
2022/02/24 09:20:32;;;;;;;3.53;2.60;;;5.70;94.60;7.20;97182.00;;;;5125082;28;20190;-83
2022/02/24 09:23:33;;;;;;;5.90;3.00;;;5.90;94.30;7.60;97183.00;;;;5117870;27;20198;-84
2022/02/24 09:26:22;;;;;;;8.00;2.70;;;6.10;93.40;7.60;97183.00;;;;5097819;22;20245;-64
2022/02/24 09:29:11;;;;;;;5.30;2.90;;;5.70;91.50;8.00;97176.00;;;;5082641;28;20217;-64
2022/02/24 09:32:00;;;;;;;6.53;3.00;;;6.50;91.00;8.40;97175.00;;;;5069731;28;20224;-62
2022/02/24 09:34:49;;;;;;;7.83;3.00;;;6.70;90.80;8.30;97176.00;;;;5055572;28;20209;-64
2022/02/24 09:37:39;;;;;;;5.83;2.60;;;6.90;88.80;8.60;97165.00;;;;5068435;28;20215;-64
2022/02/24 09:40:31;;;;;;;4.40;2.90;;;7.10;87.70;8.90;97169.00;;;;5056021;28;20204;-64
2022/02/24 09:43:31;;;;;;;5.13;2.97;;;7.30;86.90;8.90;97157.00;;;;5046348;28;20204;-64
2022/02/24 09:46:21;;;;;;;3.63;2.20;;;7.50;85.40;9.20;97167.00;;;;5056109;28;20228;-64
2022/02/24 09:49:11;;;;;;;4.20;2.83;;;7.60;84.40;9.30;97150.00;;;;5062324;28;20249;-64
2022/02/24 09:52:00;;;;;;;5.97;2.73;;;7.80;82.00;9.40;97157.00;;;;5058070;28;20224;-66
2022/02/24 09:54:49;;;;;;;2.57;2.20;;;7.90;81.00;9.70;97141.00;;;;5050869;28;20625;-63
2022/02/24 09:57:40;;;;;;;9.27;2.40;;;8.10;80.10;10.20;97144.00;;;;5064721;28;20941;-63
2022/02/24 10:00:29;;;;;;;4.97;2.37;;;8.40;79.90;10.50;97149.00;;;;5070724;28;20197;-63
2022/02/24 10:03:34;;;;;;;3.30;2.30;;;8.60;79.30;10.80;97140.00;;;;5063170;28;20208;-64
2022/02/24 10:06:37;;;;;;;2.70;1.87;;;8.90;76.10;11.10;97138.00;;;;5065790;28;20228;-63
2022/02/24 10:09:33;;;;;;;4.27;2.10;;;9.20;74.40;11.10;97136.00;;;;5067739;28;20208;-63
2022/02/24 10:12:21;;;;;;;2.70;2.20;;;9.40;72.40;11.60;97134.00;;;;5066791;28;20224;-64
2022/02/24 10:15:16;;;;;;;2.70;2.23;;;9.70;71.20;11.70;97127.00;;;;5058275;28;20208;-63
2022/02/24 10:18:10;;;;;;;7.33;2.33;;;9.90;69.50;12.30;97124.00;;;;5070867;28;20222;-63
2022/02/24 10:21:01;;;;;;;3.20;2.20;;;10.20;70.10;12.40;97120.00;;;;5063732;28;20282;-63
2022/02/24 10:23:52;;;;;;;2.70;1.70;;;10.40;67.00;12.60;97116.00;;;;5067231;28;20243;-63
2022/02/24 10:26:40;;;;;;;3.53;1.83;;;10.70;65.70;13.00;97114.00;;;;5062863;28;20227;-63
2022/02/24 10:29:29;;;;;;;4.37;1.97;;;11.00;65.80;13.30;97107.00;;;;5061196;28;20196;-61
2022/02/24 10:32:32;;;;;;;2.70;1.50;;;11.20;64.50;12.50;97096.00;;;;5054567;28;20228;-64
2022/02/24 10:35:25;;;;;;;1.30;1.20;;;11.30;60.60;13.20;97085.00;;;;5059684;28;20235;-63
2022/02/24 10:38:15;;;;;;;3.53;1.90;;;11.50;60.30;13.20;97074.00;;;;5058266;28;20204;-64
2022/02/24 10:41:04;;;;;;;4.17;1.77;;;11.60;59.80;12.00;97078.00;;;;5038503;28;20224;-64
2022/02/24 10:43:53;;;;;;;2.70;1.80;;;11.60;58.30;13.20;97070.00;;;;5045692;28;20208;-63
2022/02/24 10:46:44;;;;;;;3.73;1.73;;;11.70;58.80;14.00;97063.00;;;;5046838;28;20220;-63
2022/02/24 10:49:38;;;;;;;3.77;1.90;;;12.00;58.80;14.30;97051.00;;;;5046908;28;20205;-64
2022/02/24 10:52:27;;;;;;;5.40;2.10;;;12.30;58.40;14.40;97054.00;;;;5056720;28;20247;-63
2022/02/24 10:55:16;;;;;;;32.47;6.47;;;12.90;58.30;15.30;97043.00;;;;5065523;28;20204;-64
2022/02/24 10:58:05;;;;;;;4.90;2.60;;;13.30;57.30;15.90;97039.00;;;;5074789;28;20906;-64
2022/02/24 11:01:11;;;;;;;6.43;2.43;;;13.50;57.00;16.70;97041.00;;;;5077607;28;20222;-64
2022/02/24 11:04:03;;;;;;;3.27;1.63;;;14.40;57.00;16.10;97026.00;;;;5045672;28;20204;-65
2022/02/24 11:06:54;;;;;;;6.20;2.20;;;14.80;53.80;16.70;97031.00;;;;5054043;28;20292;-64
2022/02/24 11:09:44;;;;;;;4.87;1.63;;;15.20;53.90;16.60;97020.00;;;;5048551;28;20212;-65
2022/02/24 11:12:33;;;;;;;3.73;2.60;;;15.50;52.40;17.50;97013.00;;;;5054897;28;20723;-65
2022/02/24 11:15:25;;;;;;;4.43;1.97;;;15.70;52.60;17.50;97013.00;;;;5060258;28;20622;-64
2022/02/24 11:18:15;;;;;;;3.17;1.70;;;16.10;51.70;17.70;97005.00;;;;5062659;28;20204;-63
2022/02/24 11:21:04;;;;;;;4.53;1.87;;;16.40;51.60;17.30;97003.00;;;;5059265;28;20224;-64
2022/02/24 11:23:56;;;;;;;2.07;1.50;;;16.60;49.70;17.20;97004.00;;;;5063080;28;20713;-64
2022/02/24 11:26:50;;;;;;;2.83;2.10;;;16.70;49.40;17.90;96997.00;;;;5062890;28;20219;-64
2022/02/24 11:29:49;;;;;;;6.37;2.93;;;16.70;49.20;18.00;96989.00;;;;5061956;28;20204;-65
2022/02/24 11:32:39;;;;;;;4.03;2.80;;;16.90;49.30;17.20;96979.00;;;;5062707;28;20752;-64
2022/02/24 11:35:31;;;;;;;6.83;3.10;;;17.00;48.80;18.40;96967.00;;;;5066121;28;20231;-64
2022/02/24 11:38:20;;;;;;;4.30;3.53;;;17.00;48.90;18.90;96970.00;;;;5072474;28;20195;-64
2022/02/24 11:41:13;;;;;;;8.67;3.90;;;17.00;50.20;18.90;96970.00;;;;5063097;28;20234;-64
2022/02/24 11:44:02;;;;;;;6.23;3.60;;;17.20;49.90;18.50;96966.00;;;;5053261;28;20200;-63
2022/02/24 11:47:03;;;;;;;6.20;3.87;;;17.40;48.90;19.60;96965.00;;;;5064503;28;20228;-64
2022/02/24 11:50:10;;;;;;;4.90;3.10;;;17.60;49.70;19.90;96959.00;;;;5060055;28;20196;-64
2022/02/24 11:53:05;;;;;;;4.77;4.27;;;18.00;49.20;19.30;96946.00;;;;5060238;28;20202;-64
2022/02/24 11:55:56;;;;;;;6.20;3.80;;;18.30;48.20;17.90;96937.00;;;;5066603;28;20747;-65
2022/02/24 11:58:57;;;;;;;4.70;3.47;;;18.20;47.20;17.50;96924.00;;;;5059978;28;20200;-64
2022/02/24 12:01:52;;;;;;;4.30;3.47;;;18.00;47.40;17.60;96925.00;;;;5064169;28;20253;-64
2022/02/24 12:04:47;;;;;;;7.47;3.80;;;18.00;47.20;17.80;96917.00;;;;5052696;28;20250;-64
2022/02/24 12:07:36;;;;;;;4.23;3.03;;;17.80;47.20;17.60;96906.00;;;;5053879;28;20208;-64
2022/02/24 12:10:39;;;;;;;4.50;3.23;;;17.70;47.70;17.90;96900.00;;;;5055446;28;20624;-64
2022/02/24 12:13:31;;;;;;;3.93;2.87;;;17.90;47.40;17.90;96897.00;;;;5062454;28;20203;-65
2022/02/24 12:16:25;;;;;;;8.43;2.50;;;18.10;46.60;18.20;96888.00;;;;5057252;28;20242;-64
2022/02/24 12:19:42;;;;;;;3.93;2.30;;;18.20;46.30;19.90;96892.00;;;;5065167;28;20211;-64
2022/02/24 12:22:39;;;;;;;2.27;1.90;;;18.50;47.00;19.90;96890.00;;;;5051949;28;20612;-63
2022/02/24 12:25:30;;;;;;;2.33;1.47;;;18.90;46.40;20.50;96896.00;;;;5054081;28;20211;-64
2022/02/24 12:28:36;;;;;;;1.97;1.73;;;19.20;45.70;21.20;96881.00;;;;5065260;28;20207;-64
2022/02/24 12:31:26;;;;;;;6.13;2.10;;;19.40;45.30;18.50;96862.00;;;;5056894;28;20695;-64
2022/02/24 12:34:15;;;;;;;5.50;2.83;;;19.00;44.80;17.00;96854.00;;;;5051970;28;20244;-64
2022/02/24 12:37:05;;;;;;;7.23;2.47;;;18.90;44.00;18.60;96861.00;;;;5054330;28;20227;-64
2022/02/24 12:39:54;;;;;;;10.50;2.93;;;18.40;44.10;20.00;96857.00;;;;5048710;28;20205;-64
2022/02/24 12:42:44;;;;;;;7.27;2.83;;;18.40;45.60;20.00;96865.00;;;;5057199;28;20600;-64